Time;durP1;ratioP1;P1;durP2;ratioP2;P2;SDS_P1;SDS_P2;PMS_P1;PMS_P2;Temp;Humidity;BMP_temperature;BMP_pressure;BME280_temperature;BME280_humidity;BME280_pressure;Samples;Min_cycle;Max_cycle;Signal;HPM_P1;HPM_P2
2022/01/24 00:00:27;;;;;;;86.38;37.53;;;;;;;4.40;100.00;103490.72;5052444;28;20045;-44
2022/01/24 00:02:53;;;;;;;92.03;37.65;;;;;;;4.39;100.00;103489.84;5050197;28;20101;-46
2022/01/24 00:05:18;;;;;;;83.03;37.03;;;;;;;4.39;100.00;103489.84;5050570;28;20020;-44
2022/01/24 00:07:43;;;;;;;79.72;37.33;;;;;;;4.39;100.00;103495.13;5056808;28;20009;-47
2022/01/24 00:10:15;;;;;;;80.57;36.00;;;;;;;4.39;100.00;103488.97;5058196;28;20029;-47
2022/01/24 00:12:53;;;;;;;80.28;37.08;;;;;;;4.41;100.00;103497.72;5042980;28;20021;-46
2022/01/24 00:15:47;;;;;;;80.03;36.58;;;;;;;4.41;100.00;103488.03;5054674;28;20465;-46
2022/01/24 00:18:10;;;;;;;74.20;34.35;;;;;;;4.39;100.00;103481.91;5056267;28;20419;-44
2022/01/24 00:28:47;;;;;;;76.03;33.72;;;;;;;4.34;100.00;103485.63;5060722;28;20039;-44
2022/01/24 00:31:12;;;;;;;66.50;32.55;;;;;;;4.31;100.00;103478.66;5060437;28;20025;-44
2022/01/24 00:33:38;;;;;;;68.13;32.35;;;;;;;4.31;100.00;103473.38;5058688;28;20142;-44
2022/01/24 00:36:03;;;;;;;64.95;31.73;;;;;;;4.31;100.00;103470.72;5059880;28;20025;-43
2022/01/24 00:38:29;;;;;;;62.72;30.98;;;;;;;4.31;100.00;103470.72;5059632;28;20028;-46
2022/01/24 00:40:55;;;;;;;61.55;30.27;;;;;;;4.29;100.00;103477.84;5059873;28;20518;-45
2022/01/24 00:43:43;;;;;;;55.90;29.42;;;;;;;4.30;100.00;103480.44;5060252;28;20369;-44
2022/01/24 00:46:19;;;;;;;56.28;29.58;;;;;;;4.28;100.00;103477.00;5060313;28;20031;-44
2022/01/24 00:56:56;;;;;;;62.55;30.88;;;;;;;4.28;100.00;103477.00;5060828;28;20101;-47
2022/01/24 00:59:21;;;;;;;60.95;29.58;;;;;;;4.24;100.00;103467.47;5059128;28;20036;-47
2022/01/24 01:01:46;;;;;;;59.88;30.90;;;;;;;4.24;100.00;103480.69;5059354;28;20041;-43
2022/01/24 01:04:12;;;;;;;59.55;30.60;;;;;;;4.25;100.00;103473.59;5059932;28;20032;-43
2022/01/24 01:06:40;;;;;;;62.30;29.83;;;;;;;4.24;100.00;103478.03;5059328;28;20067;-44
2022/01/24 01:20:01;;;;;;;56.08;29.42;;;;;;;4.23;100.00;103467.50;5059022;28;20072;-46
2022/01/24 01:22:26;;;;;;;57.67;28.42;;;;;;;4.23;100.00;103470.16;5058665;28;20028;-43
2022/01/24 01:24:54;;;;;;;57.53;29.67;;;;;;;4.22;100.00;103465.78;5059590;28;20063;-44
2022/01/24 01:27:25;;;;;;;57.05;29.50;;;;;;;4.22;100.00;103468.41;5059064;28;20407;-46
2022/01/24 01:30:02;;;;;;;;;;;;;;;4.27;100.00;103466.47;5058323;28;20032;-44
2022/01/24 01:32:47;;;;;;;56.10;28.30;;;;;;;4.22;100.00;103463.13;5058929;28;19920;-44
2022/01/24 01:36:10;;;;;;;54.15;28.75;;;;;;;4.20;100.00;103464.97;5060003;28;20086;-47
2022/01/24 01:56:57;;;;;;;52.28;27.45;;;;;;;4.20;100.00;103479.06;5051428;28;20037;-43
2022/01/24 01:59:23;;;;;;;52.30;27.02;;;;;;;4.22;100.00;103479.00;5058055;28;20078;-45
2022/01/24 02:01:48;;;;;;;50.53;28.25;;;;;;;4.21;100.00;103475.50;5059158;28;20017;-44
2022/01/24 02:04:14;;;;;;;52.22;28.35;;;;;;;4.17;100.00;103468.56;5059327;28;20090;-45
2022/01/24 02:06:40;;;;;;;56.50;29.80;;;;;;;4.21;100.00;103472.84;5059190;28;20353;-44
2022/01/24 02:09:10;;;;;;;52.88;28.85;;;;;;;4.20;100.00;103465.81;5057986;28;20066;-48
2022/01/24 02:11:36;;;;;;;57.08;30.25;;;;;;;4.18;100.00;103454.44;5058704;28;20029;-46
2022/01/24 02:14:11;;;;;;;54.60;29.38;;;;;;;4.18;100.00;103456.25;5057800;28;20066;-46
2022/01/24 02:16:51;;;;;;;51.92;28.20;;;;;;;4.19;100.00;103447.38;5058780;28;20028;-46
2022/01/24 02:20:03;;;;;;;56.72;28.27;;;;;;;4.17;100.00;103451.84;5056616;28;20127;-45
2022/01/24 02:24:42;;;;;;;49.58;26.35;;;;;;;4.16;100.00;103448.34;5057501;28;20025;-43
2022/01/24 02:27:09;;;;;;;47.55;25.05;;;;;;;4.16;100.00;103448.34;5057562;28;20377;-47
2022/01/24 02:32:11;;;;;;;49.58;26.67;;;;;;;4.14;100.00;103441.38;5059073;28;20021;-45
2022/01/24 02:34:40;;;;;;;43.05;25.10;;;;;;;4.16;100.00;103440.41;5058172;28;20086;-47
2022/01/24 02:37:11;;;;;;;46.50;24.85;;;;;;;4.15;100.00;103443.97;5058128;28;20396;-44
2022/01/24 02:39:58;;;;;;;47.70;24.35;;;;;;;4.15;100.00;103433.41;5057282;28;20438;-43
2022/01/24 02:53:19;;;;;;;42.50;21.30;;;;;;;4.13;100.00;103439.66;5057521;28;20140;-46
2022/01/24 02:55:45;;;;;;;37.35;20.52;;;;;;;4.13;100.00;103443.16;5057937;28;20021;-48
2022/01/24 02:58:11;;;;;;;36.63;20.35;;;;;;;4.13;100.00;103437.03;5058311;28;20111;-44
2022/01/24 03:00:38;;;;;;;38.85;20.08;;;;;;;4.13;100.00;103442.31;5056822;28;20111;-44
2022/01/24 03:03:03;;;;;;;34.95;19.52;;;;;;;4.08;100.00;103435.38;5056492;28;20476;-47
2022/01/24 03:05:29;;;;;;;36.78;19.38;;;;;;;4.10;100.00;103435.34;5057491;28;20016;-47
2022/01/24 03:07:55;;;;;;;34.15;18.83;;;;;;;4.09;100.00;103425.66;5056954;28;20463;-45
2022/01/24 03:10:26;;;;;;;34.67;19.70;;;;;;;4.09;100.00;103429.19;5057197;28;20213;-45
2022/01/24 03:13:09;;;;;;;38.88;20.13;;;;;;;4.11;100.00;103429.16;5057938;28;20028;-44
2022/01/24 03:15:34;;;;;;;38.08;18.95;;;;;;;4.08;100.00;103419.53;5055986;28;20147;-44
2022/01/24 03:18:00;;;;;;;35.92;19.55;;;;;;;4.08;100.00;103427.47;5057288;28;20429;-44
2022/01/24 03:20:25;;;;;;;36.38;19.92;;;;;;;4.09;100.00;103426.56;5057019;28;20037;-46
2022/01/24 03:22:50;;;;;;;32.80;18.42;;;;;;;4.08;100.00;103429.25;5057110;28;20074;-47
2022/01/24 03:25:15;;;;;;;35.08;18.77;;;;;;;4.08;100.00;103422.16;5056909;28;20096;-44
2022/01/24 03:27:41;;;;;;;35.55;19.02;;;;;;;4.08;100.00;103416.88;5057881;28;20329;-44
2022/01/24 03:30:07;;;;;;;32.47;17.92;;;;;;;4.07;100.00;103415.16;5056028;28;20052;-45
2022/01/24 03:32:32;;;;;;;35.80;19.65;;;;;;;4.08;100.00;103419.53;5057095;28;20985;-44
2022/01/24 03:34:57;;;;;;;35.15;18.75;;;;;;;4.06;100.00;103413.44;5056835;28;20418;-43
2022/01/24 03:37:22;;;;;;;32.38;17.95;;;;;;;4.05;100.00;103413.47;5056031;28;20246;-47
2022/01/24 03:39:48;;;;;;;36.10;18.73;;;;;;;4.04;100.00;103412.63;5057296;28;20032;-45
2022/01/24 03:42:13;;;;;;;34.55;18.35;;;;;;;4.05;100.00;103419.63;5057817;28;20028;-43
2022/01/24 03:44:39;;;;;;;34.80;18.42;;;;;;;4.01;100.00;103418.03;5054915;28;20492;-45
2022/01/24 03:48:08;;;;;;;31.42;17.27;;;;;;;4.03;100.00;103429.41;5056938;28;20032;-43
2022/01/24 03:50:00;;;;;;;33.47;18.20;;;;;;;4.05;100.00;103416.13;5039338;28;20126;-43
2022/01/24 03:52:26;;;;;;;31.73;17.33;;;;;;;4.06;100.00;103417.88;5055545;28;20567;-45
2022/01/24 03:54:51;;;;;;;34.40;18.08;;;;;;;4.03;100.00;103418.81;5037754;28;20132;-47
2022/01/24 03:57:19;;;;;;;32.75;17.30;;;;;;;4.05;100.00;103413.47;5057073;28;20048;-45
2022/01/24 03:59:44;;;;;;;33.78;18.38;;;;;;;4.03;100.00;103415.31;5039264;28;20115;-43
2022/01/24 04:02:11;;;;;;;34.65;18.00;;;;;;;4.00;100.00;103415.44;5061604;28;20447;-45
2022/01/24 04:04:37;;;;;;;35.20;18.38;;;;;;;4.00;100.00;103411.00;5060843;28;20149;-45
2022/01/24 04:07:03;;;;;;;33.30;18.20;;;;;;;4.01;100.00;103410.09;5060221;28;20074;-45
2022/01/24 04:09:28;;;;;;;31.48;18.20;;;;;;;4.02;100.00;103416.22;5059206;28;20025;-46
2022/01/24 04:11:56;;;;;;;35.90;18.25;;;;;;;3.97;100.00;103404.97;5042687;28;20487;-43
2022/01/24 04:16:53;;;;;;;33.78;18.33;;;;;;;4.00;100.00;103413.63;5061582;28;20126;-45
2022/01/24 04:22:11;;;;;;;;;;;;;;;4.03;100.00;103404.75;5029602;28;20075;-48
2022/01/24 04:24:37;;;;;;;34.67;18.63;;;;;;;4.00;100.00;103404.84;5041097;28;19920;-46
2022/01/24 04:27:03;;;;;;;32.13;17.83;;;;;;;3.97;100.00;103403.19;5061231;28;20388;-45
2022/01/24 04:29:28;;;;;;;32.63;18.95;;;;;;;3.95;100.00;103405.00;5049757;28;20025;-43
2022/01/24 04:31:53;;;;;;;33.70;18.83;;;;;;;3.97;100.00;103412.88;5039516;28;20029;-43
2022/01/24 04:34:19;;;;;;;34.05;19.48;;;;;;;3.95;100.00;103409.44;5040275;28;20028;-43
2022/01/24 04:36:44;;;;;;;36.67;18.83;;;;;;;3.96;100.00;103417.31;5022639;28;20025;-44
2022/01/24 04:39:10;;;;;;;32.58;18.83;;;;;;;3.95;100.00;103409.44;5039981;28;20040;-45
2022/01/24 04:41:39;;;;;;;33.17;19.42;;;;;;;3.95;100.00;103418.22;5040644;28;20029;-45
2022/01/24 04:44:44;;;;;;;32.55;19.02;;;;;;;3.95;100.00;103420.03;5039527;28;20040;-47
2022/01/24 04:47:30;;;;;;;32.30;19.27;;;;;;;3.95;100.00;103417.38;5039869;28;20112;-48
2022/01/24 04:52:57;;;;;;;34.83;18.35;;;;;;;3.94;100.00;103413.88;5039799;28;20118;-44
2022/01/24 04:55:23;;;;;;;35.97;19.08;;;;;;;3.94;100.00;103416.53;5039624;28;20105;-47
2022/01/24 04:57:48;;;;;;;34.42;18.80;;;;;;;3.94;100.00;103421.81;5046727;28;20506;-44
2022/01/24 05:00:14;;;;;;;32.63;18.63;;;;;;;3.93;100.00;103420.91;5059560;28;20139;-44
2022/01/24 05:02:40;;;;;;;32.78;18.48;;;;;;;3.90;100.00;103418.41;5060221;28;20640;-44
2022/01/24 05:05:08;;;;;;;35.22;18.90;;;;;;;3.94;100.00;103427.09;5060115;28;20512;-48
2022/01/24 05:07:34;;;;;;;34.05;17.40;;;;;;;3.93;100.00;103423.56;5040621;28;20017;-43
2022/01/24 05:25:46;;;;;;;38.80;19.75;;;;;;;3.92;100.00;103415.69;5058614;28;20032;-47
2022/01/24 05:28:11;;;;;;;37.40;19.23;;;;;;;3.90;100.00;103413.13;5059039;28;20032;-48
2022/01/24 05:30:36;;;;;;;34.78;18.48;;;;;;;3.88;100.00;103411.44;5058662;28;20028;-46
2022/01/24 05:33:01;;;;;;;36.03;19.02;;;;;;;3.88;100.00;103406.16;5059036;28;20028;-44
2022/01/24 05:35:27;;;;;;;34.38;18.73;;;;;;;3.85;100.00;103401.84;5059223;28;20020;-43
2022/01/24 05:37:52;;;;;;;35.90;18.98;;;;;;;3.85;100.00;103406.25;5058773;28;20464;-43
2022/01/24 05:40:17;;;;;;;35.65;19.05;;;;;;;3.85;100.00;103404.50;5058111;28;20021;-43
2022/01/24 05:42:43;;;;;;;33.72;18.98;;;;;;;3.84;100.00;103410.69;5058860;28;20066;-45
2022/01/24 05:45:08;;;;;;;37.83;19.67;;;;;;;3.87;100.00;103409.69;5058147;28;20031;-43
2022/01/24 05:47:34;;;;;;;37.42;19.48;;;;;;;3.89;100.00;103415.81;5059018;28;20029;-47
2022/01/24 05:49:59;;;;;;;35.10;19.52;;;;;;;3.88;100.00;103417.59;5058866;28;20360;-42
2022/01/24 05:52:25;;;;;;;39.67;20.33;;;;;;;3.88;100.00;103414.94;5058335;28;20032;-44
2022/01/24 05:54:51;;;;;;;32.85;19.52;;;;;;;3.88;100.00;103407.00;5059026;28;20021;-44
2022/01/24 05:57:16;;;;;;;33.45;19.58;;;;;;;3.88;100.00;103411.44;5057097;28;20444;-45
2022/01/24 05:59:41;;;;;;;37.30;20.73;;;;;;;3.88;100.00;103409.66;5058096;28;20036;-48
2022/01/24 06:02:07;;;;;;;38.75;20.38;;;;;;;3.87;100.00;103409.69;5058063;28;20032;-47
2022/01/24 06:04:33;;;;;;;34.30;20.23;;;;;;;3.86;100.00;103414.13;5058155;28;20384;-43
2022/01/24 06:06:59;;;;;;;38.97;20.80;;;;;;;3.87;100.00;103409.69;5058622;28;20056;-45
2022/01/24 06:09:24;;;;;;;39.65;21.10;;;;;;;3.86;100.00;103411.50;5057559;28;20063;-44
2022/01/24 06:11:51;;;;;;;35.60;19.80;;;;;;;3.86;100.00;103411.50;5058830;28;20420;-44
2022/01/24 06:14:16;;;;;;;39.53;21.20;;;;;;;3.88;100.00;103411.44;5038288;28;20042;-45
2022/01/24 06:16:42;;;;;;;37.47;21.35;;;;;;;3.86;100.00;103413.28;5058103;28;20058;-45
2022/01/24 06:19:07;;;;;;;35.50;19.55;;;;;;;3.87;100.00;103417.63;5057360;28;20052;-44
2022/01/24 06:21:32;;;;;;;37.28;19.73;;;;;;;3.87;100.00;103428.22;5047185;28;20029;-47
2022/01/24 06:23:57;;;;;;;37.78;20.80;;;;;;;3.87;100.00;103420.28;5037196;28;20075;-46
2022/01/24 06:26:23;;;;;;;34.80;20.23;;;;;;;3.85;100.00;103409.78;5037496;28;20051;-47
2022/01/24 06:28:48;;;;;;;37.33;20.35;;;;;;;3.85;100.00;103416.81;5036762;28;20021;-42
2022/01/24 06:31:13;;;;;;;34.00;19.50;;;;;;;3.82;100.00;103412.53;5039036;28;20079;-48
2022/01/24 06:33:39;;;;;;;35.22;20.17;;;;;;;3.84;100.00;103415.13;5039024;28;20476;-45
2022/01/24 06:36:05;;;;;;;35.78;20.52;;;;;;;3.81;100.00;103408.16;5032333;28;20035;-44
2022/01/24 06:38:30;;;;;;;39.35;19.60;;;;;;;3.83;100.00;103413.38;5051086;28;20052;-45
2022/01/24 06:40:55;;;;;;;35.22;19.00;;;;;;;3.82;100.00;103412.53;5041724;28;20029;-43
2022/01/24 06:43:21;;;;;;;36.97;20.98;;;;;;;3.80;100.00;103416.13;5043911;28;20020;-44
2022/01/24 06:45:47;;;;;;;37.13;20.13;;;;;;;3.78;100.00;103412.69;5039488;28;20028;-44
2022/01/24 06:48:12;;;;;;;38.13;21.10;;;;;;;3.78;100.00;103418.81;5051503;28;20027;-45
2022/01/24 06:50:37;;;;;;;33.30;20.35;;;;;;;3.77;100.00;103414.47;5041539;28;20104;-46
2022/01/24 06:53:03;;;;;;;36.88;19.52;;;;;;;3.78;100.00;103415.31;5036681;28;20450;-46
2022/01/24 06:55:28;;;;;;;33.83;19.83;;;;;;;3.79;100.00;103423.19;5042780;28;20607;-45
2022/01/24 06:57:54;;;;;;;39.40;20.98;;;;;;;3.79;100.00;103417.91;5054686;28;20036;-45
2022/01/24 07:00:25;;;;;;;34.55;19.58;;;;;;;3.80;100.00;103418.78;5047718;28;20063;-44
2022/01/24 07:02:51;;;;;;;39.22;21.23;;;;;;;3.77;100.00;103418.88;5057441;28;20029;-46
2022/01/24 07:05:16;;;;;;;46.13;22.33;;;;;;;3.78;100.00;103418.81;5054188;28;20054;-46
2022/01/24 07:07:41;;;;;;;43.97;21.50;;;;;;;3.78;100.00;103425.91;5051411;28;20032;-47
2022/01/24 07:10:07;;;;;;;42.38;22.85;;;;;;;3.76;100.00;103425.94;5049184;28;20024;-45
2022/01/24 07:12:32;;;;;;;43.10;22.17;;;;;;;3.76;100.00;103428.59;5063771;28;20272;-43
2022/01/24 07:15:03;;;;;;;40.42;22.23;;;;;;;3.75;100.00;103424.22;5068748;28;20496;-47
2022/01/24 07:17:45;;;;;;;38.17;21.73;;;;;;;3.76;100.00;103423.31;5076997;28;20488;-44
2022/01/24 07:20:10;;;;;;;40.67;21.05;;;;;;;3.76;100.00;103435.66;5077293;28;20375;-48
2022/01/24 07:22:36;;;;;;;39.53;21.77;;;;;;;3.74;100.00;103427.78;5059354;28;21200;-45
2022/01/24 07:25:01;;;;;;;43.83;21.58;;;;;;;3.72;100.00;103435.75;5056877;28;20598;-48
2022/01/24 07:27:26;;;;;;;42.63;22.77;;;;;;;3.69;100.00;103435.00;5044065;28;20061;-48
2022/01/24 07:29:51;;;;;;;38.58;21.40;;;;;;;3.68;100.00;103436.81;5041171;28;20068;-45
2022/01/24 07:32:17;;;;;;;43.85;22.95;;;;;;;3.68;100.00;103434.16;5055740;28;20036;-45
2022/01/24 07:34:42;;;;;;;40.92;21.83;;;;;;;3.69;100.00;103438.50;5054735;28;20227;-48
2022/01/24 07:37:07;;;;;;;43.00;22.15;;;;;;;3.69;100.00;103432.38;5055367;28;20119;-46
2022/01/24 07:39:33;;;;;;;40.60;21.52;;;;;;;3.70;100.00;103428.78;5055600;28;20025;-46
2022/01/24 07:42:03;;;;;;;46.22;22.23;;;;;;;3.68;100.00;103428.88;5056664;28;20079;-47
2022/01/24 07:44:29;;;;;;;38.95;21.15;;;;;;;3.70;100.00;103429.69;5055784;28;20160;-47
2022/01/24 07:46:54;;;;;;;41.42;22.50;;;;;;;3.70;100.00;103434.06;5057133;28;20466;-49
2022/01/24 07:49:19;;;;;;;46.88;23.05;;;;;;;3.69;100.00;103446.44;5071606;28;20148;-47
2022/01/24 07:51:45;;;;;;;42.05;22.08;;;;;;;3.69;100.00;103453.50;5077612;28;20023;-50
2022/01/24 07:54:10;;;;;;;43.13;22.65;;;;;;;3.69;100.00;103454.38;5076778;28;20547;-44
2022/01/24 07:56:36;;;;;;;43.85;22.15;;;;;;;3.70;100.00;103458.75;5073259;28;20585;-43
2022/01/24 07:59:02;;;;;;;41.17;22.77;;;;;;;3.71;100.00;103464.88;5075635;28;20032;-45
2022/01/24 08:01:28;;;;;;;40.03;21.90;;;;;;;3.72;100.00;103464.84;5076876;28;20361;-46
2022/01/24 08:03:53;;;;;;;39.38;21.85;;;;;;;3.71;100.00;103463.09;5076184;28;20035;-46
2022/01/24 08:06:19;;;;;;;41.42;21.73;;;;;;;3.74;100.00;103470.94;5076143;28;20266;-50
2022/01/24 08:08:44;;;;;;;40.90;22.88;;;;;;;3.76;100.00;103473.53;5076864;28;20027;-45
2022/01/24 08:11:09;;;;;;;39.17;22.13;;;;;;;3.79;100.00;103465.50;5067523;28;20016;-46
2022/01/24 08:13:36;;;;;;;39.42;22.33;;;;;;;3.80;100.00;103463.72;5055030;28;20028;-46
2022/01/24 08:16:02;;;;;;;45.35;23.35;;;;;;;3.81;100.00;103470.72;5038925;28;20091;-49
2022/01/24 08:18:27;;;;;;;41.72;23.80;;;;;;;3.83;100.00;103460.97;5038246;28;20282;-48
2022/01/24 08:20:52;;;;;;;44.70;23.55;;;;;;;3.83;100.00;103466.25;5054928;28;20020;-48
2022/01/24 08:23:19;;;;;;;39.85;21.95;;;;;;;3.82;100.00;103468.03;5063562;28;20501;-46
2022/01/24 08:25:45;;;;;;;43.90;22.00;;;;;;;3.85;100.00;103469.69;5047372;28;20506;-52
2022/01/24 08:28:10;;;;;;;42.35;22.30;;;;;;;3.84;100.00;103463.56;5064892;28;20228;-46
2022/01/24 08:30:36;;;;;;;42.05;22.35;;;;;;;3.84;100.00;103474.13;5066044;28;20816;-44
2022/01/24 08:33:01;;;;;;;42.80;23.67;;;;;;;3.84;100.00;103471.50;5064178;28;20275;-45
2022/01/24 08:35:27;;;;;;;42.55;23.05;;;;;;;3.85;100.00;103469.69;5057799;28;20409;-45
2022/01/24 08:37:52;;;;;;;45.88;24.23;;;;;;;3.86;100.00;103463.50;5064888;28;20050;-44
2022/01/24 08:40:23;;;;;;;45.72;24.15;;;;;;;3.89;100.00;103476.63;5065442;28;20047;-44
2022/01/24 08:48:05;;;;;;;45.67;24.45;;;;;;;3.93;100.00;103473.81;5058646;28;20035;-43
2022/01/24 08:50:31;;;;;;;43.92;23.75;;;;;;;3.95;100.00;103475.53;5058100;28;20392;-43
2022/01/24 08:52:59;;;;;;;44.13;24.55;;;;;;;3.97;100.00;103476.34;5055686;28;20108;-44
2022/01/24 08:55:44;;;;;;;46.03;24.52;;;;;;;3.97;100.00;103468.41;5058019;28;20051;-45
2022/01/24 08:58:13;;;;;;;45.42;23.67;;;;;;;3.96;100.00;103475.50;5057318;28;20031;-44
2022/01/24 09:00:39;;;;;;;51.78;24.75;;;;;;;3.91;100.00;103466.84;5056435;28;20032;-44
2022/01/24 09:03:05;;;;;;;46.67;25.33;;;;;;;3.91;100.00;103475.63;5064696;28;20062;-46
2022/01/24 09:05:34;;;;;;;47.55;25.08;;;;;;;3.91;100.00;103469.50;5059307;28;20467;-47
2022/01/24 09:08:00;;;;;;;48.45;25.92;;;;;;;3.86;100.00;103476.72;5060449;28;20471;-45
2022/01/24 09:10:25;;;;;;;52.17;26.38;;;;;;;3.85;100.00;103480.28;5068740;28;20025;-43
2022/01/24 09:12:50;;;;;;;49.25;25.98;;;;;;;3.88;100.00;103480.19;5067187;28;20482;-45
2022/01/24 09:15:16;;;;;;;50.60;27.05;;;;;;;3.89;100.00;103479.28;5067959;28;20004;-47
2022/01/24 09:17:43;;;;;;;57.28;27.42;;;;;;;3.91;100.00;103488.88;5068409;28;20563;-47
2022/01/24 09:20:10;;;;;;;54.75;27.38;;;;;;;3.95;100.00;103479.03;5064738;28;20049;-45
2022/01/24 09:22:36;;;;;;;55.72;27.15;;;;;;;3.96;100.00;103478.13;5060597;28;20136;-45
2022/01/24 09:25:04;;;;;;;54.33;28.50;;;;;;;3.94;100.00;103474.69;5063851;28;20027;-42
2022/01/24 09:27:30;;;;;;;53.80;27.27;;;;;;;3.95;100.00;103475.53;5067969;28;20047;-42
2022/01/24 09:29:56;;;;;;;50.47;26.50;;;;;;;3.96;100.00;103478.13;5067248;28;20047;-43
2022/01/24 09:32:21;;;;;;;52.13;25.98;;;;;;;4.00;100.00;103481.53;5067694;28;20456;-44
2022/01/24 09:34:47;;;;;;;53.15;27.10;;;;;;;4.03;100.00;103478.78;5068994;28;20059;-42
2022/01/24 09:37:12;;;;;;;49.60;26.75;;;;;;;4.05;100.00;103483.09;5066657;28;20058;-44
2022/01/24 09:39:37;;;;;;;53.45;26.20;;;;;;;4.07;100.00;103483.94;5068398;28;20024;-47
2022/01/24 09:42:03;;;;;;;52.47;28.00;;;;;;;4.05;100.00;103479.59;5067103;28;20337;-44
2022/01/24 09:44:28;;;;;;;50.08;26.02;;;;;;;3.96;100.00;103475.50;5065453;28;20228;-45
2022/01/24 09:46:53;;;;;;;50.53;26.20;;;;;;;3.96;100.00;103474.63;5065816;28;20027;-44
2022/01/24 09:49:19;;;;;;;57.70;27.90;;;;;;;3.94;100.00;103477.34;5068073;28;20452;-45
2022/01/24 09:51:44;;;;;;;53.78;27.90;;;;;;;3.94;100.00;103474.69;5077120;28;20016;-44
2022/01/24 09:54:11;;;;;;;53.45;27.27;;;;;;;3.92;100.00;103489.72;5059509;28;20023;-45
2022/01/24 09:56:36;;;;;;;50.35;26.45;;;;;;;3.90;100.00;103481.88;5077972;28;20032;-45
2022/01/24 09:59:03;;;;;;;54.05;26.75;;;;;;;3.93;100.00;103476.44;5075378;28;20087;-44
2022/01/24 10:01:30;;;;;;;57.28;27.83;;;;;;;4.00;100.00;103482.38;5077767;28;20020;-45
2022/01/24 10:04:16;;;;;;;50.72;26.63;;;;;;;4.07;100.00;103480.41;5077649;28;20039;-43
2022/01/24 10:06:56;;;;;;;52.80;27.15;;;;;;;4.11;100.00;103482.03;5077927;28;20408;-45
2022/01/24 10:09:41;;;;;;;50.47;25.65;;;;;;;4.10;100.00;103481.16;5059712;28;20028;-45
2022/01/24 10:17:46;;;;;;;56.20;28.08;;;;;;;4.27;100.00;103474.41;5057626;28;20043;-43
2022/01/24 10:20:30;;;;;;;52.50;28.25;;;;;;;4.34;100.00;103477.69;5057160;28;20495;-46
2022/01/24 10:23:07;;;;;;;53.70;27.67;;;;;;;4.37;100.00;103481.09;5056304;28;20098;-44
2022/01/24 10:25:44;;;;;;;55.15;27.67;;;;;;;4.41;100.00;103476.56;5056532;28;20031;-43
2022/01/24 10:28:10;;;;;;;57.75;28.00;;;;;;;4.42;100.00;103480.94;5055772;28;20111;-42
2022/01/24 10:30:35;;;;;;;56.65;28.08;;;;;;;4.42;100.00;103483.59;5057112;28;20135;-44
2022/01/24 10:33:02;;;;;;;54.97;28.08;;;;;;;4.40;100.00;103480.13;5056986;28;20649;-44
2022/01/24 10:35:46;;;;;;;54.80;28.20;;;;;;;4.41;100.00;103485.38;5056224;28;20532;-44
2022/01/24 10:38:26;;;;;;;56.60;28.33;;;;;;;4.37;100.00;103482.88;5036781;28;20021;-46
2022/01/24 10:41:23;;;;;;;55.55;27.52;;;;;;;4.40;100.00;103475.69;5053169;28;20072;-46
2022/01/24 10:43:42;;;;;;;45.53;25.50;;;;;;;4.32;98.60;103479.53;5054641;28;20044;-44
2022/01/24 10:46:09;;;;;;;54.50;29.17;;;;;;;4.15;100.00;103477.50;5055779;28;20737;-45
2022/01/24 10:48:39;;;;;;;54.75;26.60;;;;;;;4.10;100.00;103480.28;5037436;28;20492;-46
2022/01/24 10:51:10;;;;;;;54.33;28.83;;;;;;;4.01;100.00;103473.56;5056457;28;20024;-44
2022/01/24 10:53:51;;;;;;;54.90;29.20;;;;;;;3.97;100.00;103468.41;5055847;28;20059;-45
2022/01/24 10:56:36;;;;;;;53.33;27.23;;;;;;;3.96;100.00;103467.56;5054634;28;20388;-44
2022/01/24 10:59:11;;;;;;;55.80;28.20;;;;;;;3.98;100.00;103464.88;5055421;28;20024;-45
2022/01/24 11:01:37;;;;;;;51.00;27.55;;;;;;;3.99;100.00;103459.53;5056786;28;20380;-44
2022/01/24 11:04:06;;;;;;;55.42;26.92;;;;;;;4.03;100.00;103461.13;5056304;28;20642;-44
2022/01/24 11:06:37;;;;;;;55.00;28.38;;;;;;;4.04;100.00;103457.59;5055364;28;20024;-45
2022/01/24 11:09:22;;;;;;;51.80;26.38;;;;;;;3.99;100.00;103454.25;5042992;28;20021;-47
2022/01/24 11:12:15;;;;;;;54.63;26.27;;;;;;;3.97;100.00;103457.84;5036710;28;20031;-45
2022/01/24 11:14:43;;;;;;;54.42;27.27;;;;;;;3.97;100.00;103460.47;5036725;28;20404;-42
2022/01/24 11:17:12;;;;;;;49.00;25.73;;;;;;;4.00;100.00;103458.59;5036844;28;20021;-43
2022/01/24 11:19:49;;;;;;;51.55;25.90;;;;;;;3.93;100.00;103451.81;5035656;28;20060;-44
2022/01/24 11:22:20;;;;;;;51.67;26.63;;;;;;;4.01;100.00;103462.13;5016826;28;20025;-44
2022/01/24 11:24:53;;;;;;;53.90;27.73;;;;;;;4.06;100.00;103449.59;5036020;28;20032;-47
2022/01/24 11:27:19;;;;;;;53.55;27.45;;;;;;;4.11;100.00;103447.66;5034772;28;20095;-43
2022/01/24 11:29:44;;;;;;;51.70;26.67;;;;;;;4.14;100.00;103444.03;5036929;28;20036;-43
2022/01/24 11:32:24;;;;;;;52.67;26.52;;;;;;;4.13;99.94;103447.59;5035378;28;20025;-45
2022/01/24 11:34:51;;;;;;;50.70;26.38;;;;;;;4.09;100.00;103453.00;5036196;28;20462;-45
2022/01/24 11:37:39;;;;;;;50.50;25.70;;;;;;;4.14;100.00;103444.91;5034797;28;20064;-45
2022/01/24 11:40:16;;;;;;;49.65;25.52;;;;;;;4.19;100.00;103445.59;5027977;28;20048;-47
2022/01/24 11:42:44;;;;;;;55.33;26.10;;;;;;;4.20;100.00;103447.31;5035937;28;20308;-43
2022/01/24 11:45:15;;;;;;;51.25;25.55;;;;;;;4.29;100.00;103452.28;5036645;28;20029;-46
2022/01/24 11:47:42;;;;;;;51.90;26.58;;;;;;;4.41;100.00;103444.81;5036142;28;20117;-47
2022/01/24 11:50:23;;;;;;;47.55;25.27;;;;;;;4.52;99.96;103447.06;5017282;28;20515;-46
2022/01/24 11:52:48;;;;;;;52.00;26.80;;;;;;;4.47;98.73;103437.50;5035305;28;20036;-44
2022/01/24 11:55:16;;;;;;;57.30;27.35;;;;;;;4.45;97.33;103435.84;5035897;28;20032;-44
2022/01/24 11:57:49;;;;;;;49.30;25.15;;;;;;;4.43;97.81;103438.56;5035167;28;20052;-43
2022/01/24 12:00:23;;;;;;;52.33;26.13;;;;;;;4.38;97.77;103434.31;5034753;28;20146;-44
2022/01/24 12:02:53;;;;;;;48.90;24.90;;;;;;;4.37;97.46;103427.31;5035949;28;20047;-44
2022/01/24 12:05:18;;;;;;;46.95;25.15;;;;;;;4.40;97.00;103427.22;5035514;28;20032;-45
2022/01/24 12:07:46;;;;;;;48.60;24.35;;;;;;;4.43;98.12;103421.78;5036807;28;20029;-45
2022/01/24 12:10:24;;;;;;;50.90;24.58;;;;;;;4.43;96.99;103425.31;5054690;28;20508;-45
2022/01/24 12:13:02;;;;;;;48.22;24.95;;;;;;;4.42;97.35;103428.88;5054701;28;20067;-43
2022/01/24 12:15:36;;;;;;;47.95;25.10;;;;;;;4.48;97.35;103427.78;5055496;28;20051;-45
2022/01/24 12:18:02;;;;;;;44.67;23.85;;;;;;;4.52;96.90;103423.25;5054262;28;20513;-44
2022/01/24 12:20:30;;;;;;;53.63;26.48;;;;;;;4.53;97.50;103424.97;5055320;28;20056;-45
2022/01/24 12:23:19;;;;;;;52.85;25.17;;;;;;;4.58;97.45;103426.53;5058971;28;20528;-46
2022/01/24 12:26:07;;;;;;;49.92;25.48;;;;;;;4.71;98.34;103426.06;5059103;28;20060;-46
2022/01/24 12:28:45;;;;;;;52.95;25.30;;;;;;;4.76;96.29;103419.66;5058744;28;20035;-46
2022/01/24 12:31:21;;;;;;;51.13;25.08;;;;;;;4.75;95.15;103417.06;5059728;28;20031;-45
2022/01/24 12:33:52;;;;;;;50.10;26.50;;;;;;;4.80;96.30;103415.09;5058472;28;20105;-43
2022/01/24 12:36:38;;;;;;;52.65;25.35;;;;;;;4.90;97.15;103411.16;5058340;28;20032;-44
2022/01/24 12:39:14;;;;;;;52.78;26.02;;;;;;;4.82;93.66;103406.19;5058179;28;20047;-46
2022/01/24 12:41:48;;;;;;;49.55;26.08;;;;;;;4.77;94.99;103404.63;5058195;28;20371;-46
2022/01/24 12:47:20;;;;;;;51.97;27.75;;;;;;;4.83;96.57;103399.94;5058482;28;20368;-46
2022/01/24 12:49:47;;;;;;;50.70;26.08;;;;;;;4.95;98.02;103398.59;5058695;28;20039;-43
2022/01/24 12:52:15;;;;;;;49.72;25.90;;;;;;;5.04;94.98;103398.25;5058200;28;20710;-45
2022/01/24 12:54:47;;;;;;;50.95;25.42;;;;;;;5.11;96.22;103404.16;5058388;28;20028;-45
2022/01/24 12:57:15;;;;;;;49.97;26.10;;;;;;;5.18;96.13;103392.38;5053195;28;20031;-43
2022/01/24 12:59:52;;;;;;;52.25;27.17;;;;;;;5.32;96.32;103390.94;5058091;28;20100;-45